AIC1058 KLFT-KAUS
Flight info
| Callsign | AIC1058 |
|---|---|
| Flight time | 1h 7m |
| Altitude | 43000 |
| Route | KAPGT SBI LUKKN WLEEE7 |
| Aircraft | C25C/M-SDE2E3FGHRWXY/LB1 |
Departure
| Time | 2026-04-23 23:36 |
|---|---|
| Airport | Lafayette Regional Airport (KLFT) |
Arrival
| Time | 2026-04-24 00:44 |
|---|---|
| Airport | Austin Bergstrom International Airport (KAUS) |
| Time | Latitude | Longitude | Altitude | Speed | Heading |
|---|---|---|---|---|---|
| 2026-04-23 23:18 | 30.20788 | -91.99230 | 46 ft | 0 kts | 291° |
| 2026-04-23 23:28 | 30.20788 | -91.99232 | 46 ft | 1 kts | 280° |
| 2026-04-23 23:28 | 30.20782 | -91.99241 | 46 ft | 2 kts | 204° |
| 2026-04-23 23:29 | 30.20763 | -91.99241 | 46 ft | 2 kts | 164° |
| 2026-04-23 23:29 | 30.20745 | -91.99222 | 46 ft | 4 kts | 125° |
| 2026-04-23 23:29 | 30.20744 | -91.99222 | 46 ft | 0 kts | 124° |
| 2026-04-23 23:30 | 30.20734 | -91.99204 | 46 ft | 8 kts | 121° |
| 2026-04-23 23:30 | 30.20730 | -91.99196 | 46 ft | 0 kts | 121° |
| 2026-04-23 23:30 | 30.20716 | -91.99171 | 46 ft | 9 kts | 123° |
| 2026-04-23 23:30 | 30.20678 | -91.99098 | 46 ft | 10 kts | 120° |
| 2026-04-23 23:31 | 30.20642 | -91.99024 | 46 ft | 13 kts | 119° |
| 2026-04-23 23:31 | 30.20596 | -91.98913 | 45 ft | 19 kts | 111° |
| 2026-04-23 23:31 | 30.20555 | -91.98778 | 45 ft | 13 kts | 98° |
| 2026-04-23 23:31 | 30.20608 | -91.98687 | 46 ft | 16 kts | 38° |
| 2026-04-23 23:32 | 30.20716 | -91.98591 | 46 ft | 23 kts | 38° |
| 2026-04-23 23:32 | 30.20858 | -91.98461 | 46 ft | 29 kts | 39° |
| 2026-04-23 23:32 | 30.21016 | -91.98314 | 46 ft | 29 kts | 38° |
| 2026-04-23 23:32 | 30.21173 | -91.98169 | 46 ft | 29 kts | 38° |
| 2026-04-23 23:33 | 30.21321 | -91.98033 | 46 ft | 22 kts | 37° |
| 2026-04-23 23:33 | 30.21333 | -91.98023 | 46 ft | 0 kts | 37° |
| 2026-04-23 23:33 | 30.21356 | -91.98001 | 46 ft | 14 kts | 39° |
| 2026-04-23 23:34 | 30.21391 | -91.97949 | 46 ft | 8 kts | 87° |
| 2026-04-23 23:34 | 30.21350 | -91.97874 | 46 ft | 9 kts | 128° |
| 2026-04-23 23:34 | 30.21348 | -91.97872 | 46 ft | 0 kts | 128° |
| 2026-04-23 23:35 | 30.21330 | -91.97846 | 45 ft | 11 kts | 129° |
| 2026-04-23 23:35 | 30.21299 | -91.97815 | 45 ft | 6 kts | 161° |
| 2026-04-23 23:36 | 30.21197 | -91.97890 | 46 ft | 49 kts | 219° |
| 2026-04-23 23:36 | 30.20610 | -91.98411 | 123 ft | 155 kts | 214° |
| 2026-04-23 23:36 | 30.19632 | -91.99317 | 865 ft | 207 kts | 218° |
| 2026-04-23 23:36 | 30.18472 | -92.00551 | 2006 ft | 248 kts | 219° |
| 2026-04-23 23:37 | 30.17129 | -92.01968 | 2057 ft | 252 kts | 220° |
| 2026-04-23 23:37 | 30.15915 | -92.03238 | 2031 ft | 226 kts | 220° |
| 2026-04-23 23:37 | 30.14797 | -92.04411 | 1953 ft | 209 kts | 219° |
| 2026-04-23 23:37 | 30.13701 | -92.05574 | 2114 ft | 231 kts | 218° |
| 2026-04-23 23:38 | 30.12585 | -92.06777 | 4230 ft | 206 kts | 220° |
| 2026-04-23 23:38 | 30.11899 | -92.07531 | 5538 ft | 209 kts | 221° |
| 2026-04-23 23:38 | 30.11053 | -92.08955 | 7115 ft | 220 kts | 245° |
| 2026-04-23 23:38 | 30.10660 | -92.10677 | 8787 ft | 224 kts | 259° |
| 2026-04-23 23:39 | 30.10386 | -92.12550 | 10016 ft | 251 kts | 261° |
| 2026-04-23 23:39 | 30.10096 | -92.14588 | 11351 ft | 260 kts | 261° |
| 2026-04-23 23:39 | 30.09779 | -92.16660 | 12869 ft | 265 kts | 261° |
| 2026-04-23 23:39 | 30.09437 | -92.18795 | 14203 ft | 274 kts | 261° |
| 2026-04-23 23:40 | 30.09075 | -92.20977 | 15560 ft | 279 kts | 261° |
| 2026-04-23 23:40 | 30.08701 | -92.23205 | 16913 ft | 284 kts | 262° |
| 2026-04-23 23:40 | 30.08457 | -92.25489 | 18288 ft | 288 kts | 267° |
| 2026-04-23 23:40 | 30.08279 | -92.27814 | 19472 ft | 293 kts | 268° |
| 2026-04-23 23:41 | 30.08121 | -92.30138 | 20652 ft | 296 kts | 268° |
| 2026-04-23 23:41 | 30.07958 | -92.32521 | 21839 ft | 300 kts | 268° |
| 2026-04-23 23:41 | 30.07799 | -92.34942 | 22989 ft | 304 kts | 268° |
| 2026-04-23 23:41 | 30.07637 | -92.37404 | 24025 ft | 309 kts | 268° |
| 2026-04-23 23:42 | 30.07469 | -92.39862 | 24966 ft | 312 kts | 268° |
| 2026-04-23 23:42 | 30.07352 | -92.42406 | 25922 ft | 314 kts | 271° |
| 2026-04-23 23:42 | 30.07321 | -92.44906 | 26827 ft | 317 kts | 273° |
| 2026-04-23 23:42 | 30.07330 | -92.47470 | 27732 ft | 320 kts | 274° |
| 2026-04-23 23:43 | 30.07346 | -92.50054 | 28680 ft | 321 kts | 274° |
| 2026-04-23 23:43 | 30.07348 | -92.52609 | 29776 ft | 317 kts | 274° |
| 2026-04-23 23:43 | 30.07334 | -92.55140 | 30736 ft | 313 kts | 274° |
| 2026-04-23 23:43 | 30.07304 | -92.57627 | 31683 ft | 307 kts | 274° |
| 2026-04-23 23:44 | 30.07258 | -92.60073 | 32630 ft | 302 kts | 274° |
| 2026-04-23 23:44 | 30.07202 | -92.62482 | 33555 ft | 297 kts | 274° |
| 2026-04-23 23:44 | 30.07129 | -92.64859 | 34379 ft | 293 kts | 274° |
| 2026-04-23 23:44 | 30.07046 | -92.67209 | 35029 ft | 292 kts | 274° |
| 2026-04-23 23:45 | 30.06924 | -92.69540 | 35729 ft | 290 kts | 272° |
| 2026-04-23 23:45 | 30.06687 | -92.71818 | 36364 ft | 290 kts | 271° |
| 2026-04-23 23:45 | 30.06398 | -92.74115 | 36973 ft | 289 kts | 270° |
| 2026-04-23 23:45 | 30.06087 | -92.76407 | 37570 ft | 288 kts | 270° |
| 2026-04-23 23:46 | 30.05761 | -92.78684 | 38170 ft | 287 kts | 270° |
| 2026-04-23 23:46 | 30.05426 | -92.80954 | 38741 ft | 286 kts | 270° |
| 2026-04-23 23:46 | 30.05087 | -92.83221 | 39185 ft | 286 kts | 270° |
| 2026-04-23 23:46 | 30.04755 | -92.85489 | 39603 ft | 286 kts | 270° |
| 2026-04-23 23:47 | 30.04438 | -92.87756 | 40023 ft | 286 kts | 270° |
| 2026-04-23 23:47 | 30.04133 | -92.90027 | 40445 ft | 286 kts | 270° |
| 2026-04-23 23:47 | 30.03867 | -92.92304 | 40863 ft | 286 kts | 271° |
| 2026-04-23 23:47 | 30.03625 | -92.94579 | 41275 ft | 286 kts | 271° |
| 2026-04-23 23:48 | 30.03398 | -92.96864 | 41687 ft | 286 kts | 271° |
| 2026-04-23 23:48 | 30.03191 | -92.99117 | 42092 ft | 286 kts | 271° |
| 2026-04-23 23:48 | 30.02988 | -93.01436 | 42508 ft | 287 kts | 271° |
| 2026-04-23 23:48 | 30.02804 | -93.03700 | 42865 ft | 288 kts | 271° |
| 2026-04-23 23:49 | 30.02514 | -93.08469 | 42984 ft | 308 kts | 272° |
| 2026-04-23 23:49 | 30.02271 | -93.13566 | 42997 ft | 328 kts | 272° |
| 2026-04-23 23:50 | 30.02043 | -93.18973 | 42994 ft | 345 kts | 272° |
| 2026-04-23 23:50 | 30.01830 | -93.24593 | 42991 ft | 359 kts | 272° |
| 2026-04-23 23:51 | 30.01661 | -93.30441 | 42992 ft | 368 kts | 273° |
| 2026-04-23 23:51 | 30.01552 | -93.36320 | 43000 ft | 366 kts | 274° |
| 2026-04-23 23:52 | 30.01456 | -93.42176 | 42996 ft | 364 kts | 274° |
| 2026-04-23 23:52 | 30.01363 | -93.48013 | 42995 ft | 363 kts | 274° |
| 2026-04-23 23:53 | 30.01270 | -93.53824 | 42990 ft | 362 kts | 274° |
| 2026-04-23 23:53 | 30.01181 | -93.59623 | 42986 ft | 361 kts | 274° |
| 2026-04-23 23:54 | 30.01097 | -93.65372 | 42979 ft | 360 kts | 274° |
| 2026-04-23 23:54 | 30.01015 | -93.71146 | 42974 ft | 360 kts | 274° |
| 2026-04-23 23:55 | 30.00935 | -93.76914 | 42983 ft | 359 kts | 274° |
| 2026-04-23 23:55 | 30.00858 | -93.82676 | 42973 ft | 359 kts | 274° |
| 2026-04-23 23:56 | 30.00772 | -93.88396 | 42975 ft | 358 kts | 274° |
| 2026-04-23 23:56 | 30.00405 | -93.94149 | 42948 ft | 360 kts | 269° |
| 2026-04-23 23:57 | 29.99758 | -93.99888 | 42948 ft | 360 kts | 268° |
| 2026-04-23 23:57 | 29.99074 | -94.05613 | 42947 ft | 360 kts | 268° |
| 2026-04-23 23:58 | 29.98392 | -94.11300 | 42947 ft | 360 kts | 268° |
| 2026-04-23 23:58 | 29.97705 | -94.17016 | 42946 ft | 359 kts | 268° |
| 2026-04-23 23:59 | 29.97013 | -94.22726 | 42947 ft | 358 kts | 268° |
| 2026-04-23 23:59 | 29.96305 | -94.28419 | 42950 ft | 358 kts | 268° |
| 2026-04-24 00:00 | 29.95594 | -94.34066 | 42945 ft | 357 kts | 268° |
| 2026-04-24 00:00 | 29.94885 | -94.39730 | 42947 ft | 357 kts | 268° |
| 2026-04-24 00:01 | 29.94178 | -94.45384 | 42946 ft | 356 kts | 268° |
| 2026-04-24 00:01 | 29.93472 | -94.51048 | 42942 ft | 356 kts | 268° |
| 2026-04-24 00:02 | 29.92770 | -94.56705 | 42941 ft | 356 kts | 268° |
| 2026-04-24 00:02 | 29.92133 | -94.62304 | 42938 ft | 353 kts | 270° |
| 2026-04-24 00:03 | 29.91659 | -94.67937 | 42935 ft | 353 kts | 271° |
| 2026-04-24 00:03 | 29.91222 | -94.73566 | 42932 ft | 352 kts | 271° |
| 2026-04-24 00:04 | 29.90795 | -94.79195 | 42931 ft | 352 kts | 271° |
| 2026-04-24 00:04 | 29.90369 | -94.84829 | 42931 ft | 352 kts | 271° |
| 2026-04-24 00:05 | 29.89945 | -94.90460 | 42926 ft | 352 kts | 271° |
| 2026-04-24 00:05 | 29.89528 | -94.96041 | 42920 ft | 351 kts | 271° |
| 2026-04-24 00:06 | 29.89103 | -95.01651 | 42932 ft | 351 kts | 271° |
| 2026-04-24 00:06 | 29.88675 | -95.07268 | 42927 ft | 351 kts | 271° |
| 2026-04-24 00:07 | 29.88251 | -95.12863 | 42924 ft | 348 kts | 271° |
| 2026-04-24 00:07 | 29.87826 | -95.18357 | 42919 ft | 341 kts | 271° |
| 2026-04-24 00:08 | 29.87402 | -95.23723 | 42915 ft | 335 kts | 271° |
| 2026-04-24 00:08 | 29.86976 | -95.29020 | 42916 ft | 329 kts | 272° |
| 2026-04-24 00:09 | 29.86551 | -95.34248 | 42920 ft | 325 kts | 272° |
| 2026-04-24 00:09 | 29.86122 | -95.39399 | 42918 ft | 321 kts | 272° |
| 2026-04-24 00:10 | 29.85693 | -95.44486 | 42914 ft | 318 kts | 272° |
| 2026-04-24 00:10 | 29.85267 | -95.49532 | 42908 ft | 315 kts | 272° |
| 2026-04-24 00:11 | 29.84845 | -95.54507 | 42907 ft | 313 kts | 272° |
| 2026-04-24 00:11 | 29.84419 | -95.59489 | 42907 ft | 311 kts | 272° |
| 2026-04-24 00:12 | 29.84066 | -95.64438 | 42891 ft | 308 kts | 274° |
| 2026-04-24 00:12 | 29.83884 | -95.69360 | 42898 ft | 307 kts | 275° |
| 2026-04-24 00:13 | 29.83735 | -95.74260 | 42911 ft | 305 kts | 275° |
| 2026-04-24 00:13 | 29.83597 | -95.79122 | 42847 ft | 299 kts | 275° |
| 2026-04-24 00:14 | 29.83525 | -95.81529 | 42005 ft | 303 kts | 275° |
| 2026-04-24 00:14 | 29.83452 | -95.83966 | 41309 ft | 304 kts | 275° |
| 2026-04-24 00:14 | 29.83373 | -95.86365 | 40673 ft | 303 kts | 275° |
| 2026-04-24 00:14 | 29.83286 | -95.88783 | 40030 ft | 302 kts | 275° |
| 2026-04-24 00:15 | 29.83190 | -95.91193 | 39378 ft | 301 kts | 275° |
| 2026-04-24 00:15 | 29.83090 | -95.93605 | 38728 ft | 300 kts | 275° |
| 2026-04-24 00:15 | 29.82979 | -95.96008 | 37934 ft | 299 kts | 275° |
| 2026-04-24 00:15 | 29.82872 | -95.98415 | 36957 ft | 303 kts | 275° |
| 2026-04-24 00:16 | 29.82776 | -96.00863 | 35936 ft | 309 kts | 275° |
| 2026-04-24 00:16 | 29.82693 | -96.03358 | 34888 ft | 315 kts | 274° |
| 2026-04-24 00:16 | 29.82349 | -96.05912 | 33812 ft | 331 kts | 263° |
| 2026-04-24 00:16 | 29.81539 | -96.08449 | 32610 ft | 344 kts | 255° |
| 2026-04-24 00:17 | 29.80477 | -96.10950 | 31470 ft | 350 kts | 251° |
| 2026-04-24 00:17 | 29.79334 | -96.13437 | 30329 ft | 353 kts | 249° |
| 2026-04-24 00:17 | 29.78184 | -96.15913 | 28995 ft | 356 kts | 249° |
| 2026-04-24 00:17 | 29.77029 | -96.18455 | 27482 ft | 361 kts | 249° |
| 2026-04-24 00:18 | 29.75883 | -96.21042 | 26182 ft | 363 kts | 249° |
| 2026-04-24 00:18 | 29.74768 | -96.23625 | 25119 ft | 358 kts | 249° |
| 2026-04-24 00:18 | 29.73684 | -96.26188 | 24089 ft | 354 kts | 249° |
| 2026-04-24 00:18 | 29.72630 | -96.28738 | 23027 ft | 352 kts | 249° |
| 2026-04-24 00:19 | 29.71605 | -96.31275 | 21952 ft | 346 kts | 249° |
| 2026-04-24 00:19 | 29.70613 | -96.33780 | 20943 ft | 341 kts | 249° |
| 2026-04-24 00:19 | 29.69664 | -96.36225 | 19986 ft | 337 kts | 249° |
| 2026-04-24 00:19 | 29.68730 | -96.38677 | 19058 ft | 333 kts | 249° |
| 2026-04-24 00:20 | 29.68043 | -96.41177 | 18131 ft | 326 kts | 266° |
| 2026-04-24 00:20 | 29.68439 | -96.43703 | 17144 ft | 322 kts | 290° |
| 2026-04-24 00:20 | 29.69398 | -96.46010 | 16220 ft | 318 kts | 298° |
| 2026-04-24 00:20 | 29.70790 | -96.47976 | 15354 ft | 316 kts | 313° |
| 2026-04-24 00:21 | 29.72382 | -96.49701 | 14538 ft | 311 kts | 315° |
| 2026-04-24 00:21 | 29.73993 | -96.51352 | 13748 ft | 307 kts | 316° |
| 2026-04-24 00:21 | 29.75588 | -96.52962 | 12874 ft | 304 kts | 316° |
| 2026-04-24 00:21 | 29.77188 | -96.54557 | 12097 ft | 302 kts | 316° |
| 2026-04-24 00:22 | 29.78719 | -96.56088 | 11772 ft | 285 kts | 316° |
| 2026-04-24 00:22 | 29.80226 | -96.57579 | 11027 ft | 287 kts | 316° |
| 2026-04-24 00:22 | 29.81715 | -96.59051 | 10698 ft | 277 kts | 316° |
| 2026-04-24 00:22 | 29.83148 | -96.60447 | 10350 ft | 268 kts | 317° |
| 2026-04-24 00:23 | 29.84585 | -96.61849 | 9699 ft | 273 kts | 316° |
| 2026-04-24 00:23 | 29.86037 | -96.63254 | 9128 ft | 271 kts | 316° |
| 2026-04-24 00:23 | 29.87485 | -96.64650 | 8564 ft | 271 kts | 316° |
| 2026-04-24 00:23 | 29.88905 | -96.66071 | 8025 ft | 268 kts | 313° |
| 2026-04-24 00:24 | 29.90278 | -96.67537 | 7474 ft | 268 kts | 314° |
| 2026-04-24 00:24 | 29.91635 | -96.69004 | 6946 ft | 269 kts | 314° |
| 2026-04-24 00:24 | 29.92992 | -96.70500 | 6533 ft | 269 kts | 311° |
| 2026-04-24 00:24 | 29.94331 | -96.72005 | 6213 ft | 268 kts | 312° |
| 2026-04-24 00:25 | 29.95625 | -96.73521 | 6084 ft | 264 kts | 310° |
| 2026-04-24 00:25 | 29.96472 | -96.74535 | 6062 ft | 266 kts | 310° |
| 2026-04-24 00:25 | 29.98174 | -96.76608 | 6065 ft | 270 kts | 309° |
| 2026-04-24 00:25 | 29.99477 | -96.78184 | 6075 ft | 272 kts | 311° |
| 2026-04-24 00:26 | 30.00800 | -96.79762 | 6078 ft | 274 kts | 310° |
| 2026-04-24 00:26 | 30.02128 | -96.81349 | 6092 ft | 275 kts | 310° |
| 2026-04-24 00:26 | 30.03012 | -96.82442 | 6099 ft | 276 kts | 309° |
| 2026-04-24 00:26 | 30.04649 | -96.84680 | 6119 ft | 276 kts | 307° |
| 2026-04-24 00:27 | 30.05893 | -96.86367 | 6122 ft | 276 kts | 307° |
| 2026-04-24 00:27 | 30.06735 | -96.87512 | 6130 ft | 276 kts | 306° |
| 2026-04-24 00:27 | 30.07982 | -96.89197 | 6138 ft | 276 kts | 306° |
| 2026-04-24 00:27 | 30.09214 | -96.90864 | 6148 ft | 276 kts | 307° |
| 2026-04-24 00:28 | 30.10455 | -96.92565 | 6151 ft | 276 kts | 307° |
| 2026-04-24 00:28 | 30.11460 | -96.94423 | 6145 ft | 272 kts | 289° |
| 2026-04-24 00:28 | 30.12134 | -96.96465 | 6146 ft | 271 kts | 288° |
| 2026-04-24 00:28 | 30.12800 | -96.98505 | 6147 ft | 271 kts | 287° |
| 2026-04-24 00:29 | 30.13438 | -97.00555 | 6150 ft | 271 kts | 287° |
| 2026-04-24 00:29 | 30.14092 | -97.02599 | 6152 ft | 271 kts | 286° |
| 2026-04-24 00:29 | 30.14754 | -97.04642 | 6153 ft | 271 kts | 287° |
| 2026-04-24 00:29 | 30.15411 | -97.06676 | 6152 ft | 270 kts | 286° |
| 2026-04-24 00:30 | 30.16040 | -97.08716 | 6148 ft | 268 kts | 284° |
| 2026-04-24 00:30 | 30.16654 | -97.10751 | 6127 ft | 266 kts | 285° |
| 2026-04-24 00:30 | 30.17238 | -97.12713 | 5351 ft | 263 kts | 284° |
| 2026-04-24 00:30 | 30.17839 | -97.14737 | 4506 ft | 266 kts | 285° |
| 2026-04-24 00:31 | 30.18427 | -97.16729 | 4124 ft | 251 kts | 285° |
| 2026-04-24 00:31 | 30.18984 | -97.18537 | 4099 ft | 227 kts | 284° |
| 2026-04-24 00:31 | 30.19500 | -97.20179 | 4091 ft | 208 kts | 285° |
| 2026-04-24 00:31 | 30.19981 | -97.21676 | 4085 ft | 194 kts | 284° |
| 2026-04-24 00:32 | 30.20454 | -97.23091 | 4089 ft | 183 kts | 285° |
| 2026-04-24 00:32 | 30.20899 | -97.24427 | 4086 ft | 176 kts | 285° |
| 2026-04-24 00:32 | 30.21344 | -97.25745 | 4082 ft | 178 kts | 284° |
| 2026-04-24 00:32 | 30.21874 | -97.27094 | 4081 ft | 192 kts | 293° |
| 2026-04-24 00:33 | 30.22525 | -97.28483 | 4082 ft | 201 kts | 292° |
| 2026-04-24 00:33 | 30.23215 | -97.29952 | 4099 ft | 218 kts | 294° |
| 2026-04-24 00:33 | 30.23982 | -97.31576 | 4081 ft | 241 kts | 294° |
| 2026-04-24 00:33 | 30.24815 | -97.33349 | 4082 ft | 259 kts | 294° |
| 2026-04-24 00:34 | 30.25666 | -97.35192 | 4084 ft | 267 kts | 294° |
| 2026-04-24 00:34 | 30.26553 | -97.37101 | 4082 ft | 271 kts | 294° |
| 2026-04-24 00:34 | 30.27449 | -97.39042 | 4084 ft | 275 kts | 294° |
| 2026-04-24 00:34 | 30.28356 | -97.40989 | 4083 ft | 273 kts | 294° |
| 2026-04-24 00:35 | 30.29242 | -97.42920 | 4079 ft | 271 kts | 294° |
| 2026-04-24 00:35 | 30.30131 | -97.44834 | 4091 ft | 269 kts | 294° |
| 2026-04-24 00:35 | 30.31002 | -97.46744 | 4090 ft | 267 kts | 294° |
| 2026-04-24 00:35 | 30.31875 | -97.48637 | 4091 ft | 266 kts | 294° |
| 2026-04-24 00:36 | 30.32739 | -97.50530 | 4096 ft | 266 kts | 294° |
| 2026-04-24 00:36 | 30.33608 | -97.52414 | 4096 ft | 265 kts | 294° |
| 2026-04-24 00:36 | 30.34471 | -97.54299 | 4096 ft | 265 kts | 294° |
| 2026-04-24 00:36 | 30.35279 | -97.56090 | 4092 ft | 242 kts | 290° |
| 2026-04-24 00:37 | 30.35919 | -97.57795 | 4077 ft | 220 kts | 289° |
| 2026-04-24 00:37 | 30.36505 | -97.59358 | 4079 ft | 203 kts | 286° |
| 2026-04-24 00:37 | 30.36992 | -97.60822 | 4078 ft | 188 kts | 283° |
| 2026-04-24 00:37 | 30.37439 | -97.62213 | 4027 ft | 180 kts | 283° |
| 2026-04-24 00:38 | 30.37720 | -97.63607 | 3784 ft | 177 kts | 268° |
| 2026-04-24 00:38 | 30.37701 | -97.65006 | 3574 ft | 172 kts | 255° |
| 2026-04-24 00:38 | 30.37357 | -97.66286 | 3364 ft | 163 kts | 235° |
| 2026-04-24 00:38 | 30.36674 | -97.67277 | 3143 ft | 153 kts | 208° |
| 2026-04-24 00:39 | 30.35717 | -97.67784 | 2971 ft | 150 kts | 200° |
| 2026-04-24 00:39 | 30.34787 | -97.68263 | 2882 ft | 143 kts | 199° |
| 2026-04-24 00:39 | 30.33853 | -97.68571 | 2701 ft | 141 kts | 186° |
| 2026-04-24 00:39 | 30.32898 | -97.68592 | 2606 ft | 135 kts | 174° |
| 2026-04-24 00:40 | 30.31964 | -97.68458 | 2485 ft | 135 kts | 172° |
| 2026-04-24 00:40 | 30.31020 | -97.68299 | 2314 ft | 139 kts | 172° |
| 2026-04-24 00:40 | 30.30051 | -97.68166 | 2101 ft | 140 kts | 175° |
| 2026-04-24 00:40 | 30.29075 | -97.68114 | 1884 ft | 141 kts | 176° |
| 2026-04-24 00:41 | 30.28098 | -97.68137 | 1770 ft | 140 kts | 179° |
| 2026-04-24 00:41 | 30.27198 | -97.68203 | 1838 ft | 116 kts | 179° |
| 2026-04-24 00:41 | 30.26415 | -97.68178 | 1569 ft | 114 kts | 175° |
| 2026-04-24 00:41 | 30.25605 | -97.68124 | 1281 ft | 116 kts | 175° |
| 2026-04-24 00:42 | 30.24822 | -97.68068 | 1058 ft | 110 kts | 174° |
| 2026-04-24 00:42 | 30.24078 | -97.68006 | 932 ft | 107 kts | 174° |
| 2026-04-24 00:42 | 30.23337 | -97.68003 | 897 ft | 105 kts | 181° |
| 2026-04-24 00:42 | 30.22629 | -97.68089 | 836 ft | 95 kts | 177° |
| 2026-04-24 00:43 | 30.21938 | -97.67977 | 735 ft | 107 kts | 169° |
| 2026-04-24 00:43 | 30.21144 | -97.67943 | 623 ft | 118 kts | 176° |
| 2026-04-24 00:43 | 30.20308 | -97.67914 | 523 ft | 120 kts | 178° |
| 2026-04-24 00:43 | 30.19573 | -97.67886 | 505 ft | 86 kts | 179° |
| 2026-04-24 00:44 | 30.19097 | -97.67873 | 492 ft | 43 kts | 178° |
| 2026-04-24 00:44 | 30.18885 | -97.67873 | 489 ft | 39 kts | 179° |
| 2026-04-24 00:44 | 30.18527 | -97.67863 | 479 ft | 47 kts | 179° |
| 2026-04-24 00:44 | 30.18277 | -97.67857 | 473 ft | 33 kts | 178° |
| 2026-04-24 00:45 | 30.18066 | -97.67804 | 470 ft | 21 kts | 146° |
| 2026-04-24 00:45 | 30.18014 | -97.67722 | 469 ft | 0 kts | 99° |